x

Seal Rocks - Between Montague And Hinchinbrook Islands, Ak (46061) Wave Buoy

4:50pm - Mon 20th Oct 2014 All times are AKDT. -8 hours from GMT.

  • Sig Wave height 3.6ft
  • Swell Direction
  • Peak Period 11s
  • Average Period 7s
  • Wind
    4mph, 9mph gusts
  • Sea Temp 51°f
  • Air Temp 46°f
  • Sea Pressure 987.1mb
  • Seal Rocks - Between Montague And Hinchinbrook Islands, Ak
  • Seal Rocks - Between Montague And Hinchinbrook Islands, Ak

More Historic Weather Station data

Upgrade to MSW Pro to gain access to the past 30 days of data for over 8000 Wavebouys and Weather Stations around the globe.

Join Pro

Comparision Forecast

View Surf forecast
   
Mon 10/20 4:50pm 3.5ft 11s 7s 4 9 mph 987.1mb 51f 46f
3:50pm 4.5ft 10s 7s 9 11 mph 986.8mb 51f 46f
2:50pm 4.5ft 11s 7s 7 11 mph 986.1mb 51f 46f
1:50pm 4.5ft 11s 6s 18 20 mph 985.3mb 51f 46f
12:50pm 5ft 11s 6s 16 20 mph 984.2mb 51f 47f
11:50am 5ft 11s 6s 16 20 mph 982.7mb 51f 47f
10:50am 5ft 11s 6s 16 20 mph 981.8mb 51f 47f
9:50am 4.5ft 11s 6s 20 22 mph 980.7mb 51f 47f
8:50am 5ft 11s 6s 16 18 mph 980mb 51f 47f
7:50am 5ft 11s 6s 13 16 mph 979.8mb 51f 46f
6:50am 6ft 11s 6s 29 34 mph 977.9mb 51f 45f
5:50am 7ft 11s 6s 18 22 mph 978.2mb 51f 47f
4:50am 7ft 11s 6s 29 36 mph 977.8mb 51f 47f
3:50am 6ft 10s 6s 27 34 mph 978mb 51f 47f
2:50am 6ft 11s 7s 25 31 mph 978.5mb 51f 47f
1:50am 5ft 10s 6s 13 18 mph 979.2mb 51f 45f
12:50am 5ft 11s 7s 13 16 mph 979.6mb 50f 45f
Sun 10/19 11:50pm 6ft 10s 6s 13 20 mph 979.8mb 51f 45f
10:50pm 5.5ft 10s 6s 18 20 mph 979.6mb 51f 45f
9:50pm 6ft 8s 6s 18 22 mph 979.7mb 51f 44f
6:50pm 6.5ft 11s 6s 25 29 mph 980.7mb 51f 43f
5:50pm 6ft 9s 6s 25 29 mph 981.4mb 51f 42f
4:50pm 5ft 11s 6s 25 29 mph 981.9mb 51f 41f
3:50pm 4.5ft 10s 6s 22 29 mph 982.5mb 51f 41f
2:50pm 5ft 10s 7s 22 27 mph 983.2mb 51f 42f
1:50pm 5ft 10s 7s 18 25 mph 983.9mb 51f 44f
12:50pm 5ft 11s 6s 20 25 mph 984mb 52f 46f
11:50am 4.5ft 11s 6s 16 20 mph 984.8mb 51f 46f
10:50am 4.5ft 11s 6s 18 20 mph 985.5mb 51f 46f
9:50am 4ft 11s 6s 20 22 mph 986mb 51f 46f
8:50am 4.5ft 11s 7s 20 25 mph 986.4mb 51f 47f
7:50am 4ft 11s 6s 16 20 mph 987.1mb 51f 46f
6:50am 4.5ft 11s 7s 18 20 mph 987.6mb 51f 47f
5:50am 4.5ft 12s 8s 20 22 mph 987.9mb 51f 47f
4:50am 4.5ft 11s 8s 16 20 mph 988.3mb 52f 47f
3:50am 4ft 11s 8s 16 18 mph 988.6mb 51f 47f
2:50am 4.5ft 12s 9s 16 18 mph 988.7mb 51f 47f
1:50am 3.5ft 11s 8s 16 18 mph 988.8mb 52f 47f
12:50am 4ft 12s 8s 16 20 mph 989mb 51f 47f
Sat 10/18 11:50pm 4ft 13s 8s 16 18 mph 989.1mb 51f 47f
10:50pm 4ft 12s 8s 16 20 mph 989.2mb 52f 47f
9:50pm 3.5ft 13s 7s 16 18 mph 989.4mb 52f 47f
8:50pm 3.5ft 12s 7s 16 18 mph 989.4mb 52f 47f
6:50pm 4.5ft 13s 7s 11 13 mph 990mb 52f 48f
5:50pm 4ft 13s 7s 11 13 mph 990.4mb 52f 48f
4:50pm 4.5ft 11s 8s 9 11 mph 991mb 52f 48f
3:50pm 4ft 13s 7s  -  2 mph 991.5mb 52f 49f
2:50pm 4.5ft 13s 8s 2
mph
991.8mb 52f 49f
1:50pm 4.5ft 14s 8s  -  2 mph 991.8mb 52f 49f
12:50pm 4.5ft 13s 7s 2
mph
991.9mb 52f 48f
11:50am 5ft 14s 8s 2 4 mph 991.7mb 51f 48f
10:50am 4.5ft 14s 7s 7 9 mph 991.5mb 51f 48f
9:50am 4.5ft 15s 7s 9 11 mph 991.2mb 51f 48f
8:50am 4.5ft 15s 7s 7 9 mph 990.8mb 52f 48f
7:50am 3.5ft 10s 6s 7 9 mph 990.6mb 52f 48f
6:50am 3.5ft 6s 5s 9 11 mph 990.5mb 52f 48f
5:50am 3.5ft 11s 6s 11 13 mph 990.5mb 52f 47f
4:50am 3ft 11s 6s 7 9 mph 990.5mb 52f 47f
3:50am 3.5ft 7s 6s 7 9 mph 990.5mb 52f 47f
2:50am 3.5ft 11s 6s 4 7 mph 990.6mb 52f 48f
1:50am 3.5ft 8s 6s 9 11 mph 990.4mb 52f 49f
12:50am 4ft 8s 6s 11 13 mph 990.4mb 52f 49f
Fri 10/17 11:50pm 4.5ft 11s 5s 11 16 mph 990.5mb 52f 49f
10:50pm 4.5ft 8s 5s 16 18 mph 990.5mb 52f 49f
9:50pm 5ft 6s 5s 16 20 mph 990.6mb 52f 49f
8:50pm 5ft 7s 5s 18 22 mph 990.6mb 52f 49f
7:50pm 6ft 6s 5s 18 22 mph 990.6mb 52f 49f
6:50pm 6ft 7s 5s 22 27 mph 990.5mb 52f 50f
5:50pm 6ft 6s 6s 18 25 mph 991.1mb 52f 50f
4:50pm 6ft 8s 6s 16 20 mph 991.6mb 52f 50f
3:50pm 6ft 7s 6s 16 22 mph 991.8mb 52f 52f
2:50pm 5.5ft 8s 6s 11 16 mph 992.3mb 52f 50f
1:50pm 5ft 8s 6s 13 16 mph 993mb 52f 49f
12:50pm 4.5ft 9s 6s 16 18 mph 993.9mb 52f 49f
11:50am 4.5ft 9s 6s 11 16 mph 994.3mb 52f 50f
10:50am 4.5ft 8s 7s 11 16 mph 994.7mb 52f 50f
9:50am 5ft 9s 7s 9 11 mph 995.1mb 52f 50f
8:50am 5.5ft 9s 7s 9 13 mph 995.4mb 52f 49f
7:50am 5ft 10s 7s 9
mph
995.4mb 51f 49f
6:50am 6ft 10s 7s 9 11 mph 995.9mb 51f 48f
5:50am 6ft 9s 7s 7 9 mph 996.5mb 51f 48f
4:50am 6ft 9s 7s 7 9 mph 997mb 52f 49f
3:50am 6ft 9s 7s 7
mph
997.7mb 51f 49f
2:50am 6.5ft 9s 7s 9 11 mph 997.9mb 51f 49f